Time;durP1;ratioP1;P1;durP2;ratioP2;P2;SDS_P1;SDS_P2;PMS_P1;PMS_P2;Temp;Humidity;BMP_temperature;BMP_pressure;BME280_temperature;BME280_humidity;BME280_pressure;Samples;Min_cycle;Max_cycle;Signal;HPM_P1;HPM_P2
2022/07/25 00:01:14;;;;;;;6.95;6.10;;;;;;;22.51;53.76;98629.88;5065139;28;20380;-78
2022/07/25 00:03:39;;;;;;;6.28;5.72;;;;;;;22.45;53.95;98642.09;5062144;28;20029;-78
2022/07/25 00:06:05;;;;;;;8.25;6.05;;;;;;;22.52;54.00;98645.06;5063152;28;20468;-78
2022/07/25 00:08:30;;;;;;;9.77;6.07;;;;;;;22.63;53.62;98646.28;5057571;28;20123;-78
2022/07/25 00:10:56;;;;;;;6.90;6.20;;;;;;;22.54;54.06;98623.00;5062271;28;20117;-78
2022/07/25 00:13:21;;;;;;;8.55;5.82;;;;;;;22.45;53.95;98619.53;5064714;28;20051;-78
2022/07/25 00:15:47;;;;;;;7.13;5.90;;;;;;;22.55;53.78;98630.00;5065274;28;20040;-78
2022/07/25 00:18:12;;;;;;;6.05;5.50;;;;;;;22.45;53.81;98619.53;5065011;28;20036;-78
2022/07/25 00:20:37;;;;;;;5.88;5.38;;;;;;;22.48;53.96;98624.28;5052585;28;20567;-78
2022/07/25 00:23:03;;;;;;;6.03;5.47;;;;;;;22.42;53.97;98620.97;5065568;28;20032;-78
2022/07/25 00:25:31;;;;;;;6.05;5.53;;;;;;;22.42;54.07;98620.19;5073035;28;20032;-78
2022/07/25 00:27:57;;;;;;;6.28;5.68;;;;;;;22.35;54.20;98616.06;5031230;28;20656;-78
2022/07/25 00:30:22;;;;;;;5.97;5.47;;;;;;;22.28;55.28;98623.94;5057900;28;20036;-78
2022/07/25 00:32:48;;;;;;;7.18;5.95;;;;;;;22.24;54.21;98608.63;5067855;28;20032;-78
2022/07/25 00:35:13;;;;;;;8.05;6.03;;;;;;;22.34;54.58;98619.13;5065433;28;20123;-78
2022/07/25 00:37:39;;;;;;;8.25;5.82;;;;;;;22.33;54.29;98615.59;5063577;28;20105;-78
2022/07/25 00:40:04;;;;;;;7.85;6.18;;;;;;;22.22;54.37;98608.97;5076106;28;20464;-78
2022/07/25 00:42:30;;;;;;;6.95;6.25;;;;;;;22.27;54.49;98616.94;5048588;28;20040;-78
2022/07/25 00:44:55;;;;;;;6.03;5.43;;;;;;;22.19;54.12;98612.31;5048941;28;20123;-78
2022/07/25 00:47:21;;;;;;;7.13;6.32;;;;;;;22.24;54.62;98614.06;5068726;28;20063;-78
2022/07/25 00:49:46;;;;;;;6.60;5.15;;;;;;;22.16;54.51;98599.41;5064791;28;20021;-78
2022/07/25 00:52:12;;;;;;;6.40;5.88;;;;;;;22.01;54.72;98583.69;5068896;28;20063;-78
2022/07/25 00:54:38;;;;;;;9.05;6.38;;;;;;;22.09;54.67;98596.41;5067551;28;20062;-78
2022/07/25 00:57:03;;;;;;;6.40;5.53;;;;;;;22.08;54.84;98611.13;5066593;28;20056;-78
2022/07/25 00:59:29;;;;;;;6.13;5.53;;;;;;;22.12;54.91;98608.56;5065121;28;20025;-78
2022/07/25 01:01:54;;;;;;;6.70;6.10;;;;;;;21.91;55.16;98600.34;5043240;28;20495;-78
2022/07/25 01:04:20;;;;;;;8.00;6.20;;;;;;;22.01;55.03;98604.63;5062888;28;20032;-78
2022/07/25 01:06:45;;;;;;;7.07;6.38;;;;;;;22.02;54.88;98607.00;5069087;28;20068;-78
2022/07/25 01:09:11;;;;;;;7.75;5.97;;;;;;;21.92;55.02;98574.78;5064628;28;20118;-78
2022/07/25 01:11:37;;;;;;;6.50;5.72;;;;;;;22.00;55.10;98601.09;5063386;28;20066;-78
2022/07/25 01:14:03;;;;;;;6.35;5.75;;;;;;;21.91;55.14;98583.25;5064296;28;20033;-78
2022/07/25 01:16:28;;;;;;;6.80;6.05;;;;;;;21.87;55.13;98585.03;5076441;28;20040;-78
2022/07/25 01:18:54;;;;;;;6.05;5.55;;;;;;;21.80;55.44;98574.63;5064855;28;20029;-78
2022/07/25 01:21:19;;;;;;;7.07;5.75;;;;;;;21.74;55.72;98572.44;5066313;28;20032;-78
2022/07/25 01:23:44;;;;;;;7.65;6.38;;;;;;;21.81;55.68;98589.03;5063267;28;20115;-78
2022/07/25 01:26:10;;;;;;;7.32;6.25;;;;;;;21.73;55.87;98584.44;5048665;28;20029;-78
2022/07/25 01:28:35;;;;;;;7.80;6.43;;;;;;;21.74;55.84;98567.00;5059784;28;20124;-78
2022/07/25 01:31:01;;;;;;;7.50;6.00;;;;;;;21.72;55.66;98570.06;5044615;28;20734;-78
2022/07/25 01:33:26;;;;;;;7.68;5.95;;;;;;;21.70;55.75;98566.88;5065165;28;20040;-78
2022/07/25 01:35:52;;;;;;;6.68;6.07;;;;;;;21.73;55.68;98570.88;5065013;28;20450;-78
2022/07/25 01:38:17;;;;;;;8.65;5.90;;;;;;;21.70;55.83;98568.78;5047068;28;20442;-78
2022/07/25 01:40:44;;;;;;;7.50;6.07;;;;;;;21.55;55.80;98554.66;5063928;28;20028;-78
2022/07/25 01:43:10;;;;;;;7.85;5.70;;;;;;;21.60;55.93;98567.25;5066406;28;20476;-78
2022/07/25 01:45:35;;;;;;;8.00;6.40;;;;;;;21.68;55.72;98571.84;5065298;28;20051;-78
2022/07/25 01:48:01;;;;;;;7.50;6.35;;;;;;;21.61;55.90;98566.13;5061231;28;20028;-77
2022/07/25 01:50:27;;;;;;;6.80;5.97;;;;;;;21.55;56.19;98573.66;5063433;28;20432;-78
2022/07/25 01:52:52;;;;;;;8.68;5.85;;;;;;;21.53;56.14;98572.41;5066715;28;20384;-77
2022/07/25 01:55:18;;;;;;;6.68;6.07;;;;;;;21.44;56.28;98569.72;5064191;28;20032;-78
2022/07/25 01:57:44;;;;;;;5.72;5.22;;;;;;;21.47;56.08;98571.00;5063580;28;20127;-77
2022/07/25 02:00:13;;;;;;;8.10;6.38;;;;;;;21.39;56.55;98566.38;5065627;28;20031;-78
2022/07/25 02:02:39;;;;;;;7.05;6.13;;;;;;;21.22;56.56;98531.94;5062129;28;20387;-78
2022/07/25 02:05:06;;;;;;;7.00;6.00;;;;;;;21.39;56.41;98566.38;5060519;28;20431;-78
2022/07/25 02:07:32;;;;;;;6.18;5.57;;;;;;;21.31;56.64;98562.59;5065821;28;20091;-78
2022/07/25 02:09:57;;;;;;;8.00;6.30;;;;;;;21.24;56.97;98550.63;5064755;28;20036;-78
2022/07/25 02:12:22;;;;;;;7.10;5.90;;;;;;;21.32;56.82;98560.63;5064813;28;20055;-78
2022/07/25 02:14:48;;;;;;;8.63;6.60;;;;;;;21.34;56.55;98561.13;5080567;28;20120;-78
2022/07/25 02:17:13;;;;;;;8.30;6.63;;;;;;;21.18;56.75;98554.63;5061062;28;20039;-78
2022/07/25 02:19:39;;;;;;;6.28;5.68;;;;;;;21.00;56.74;98529.44;5045906;28;20071;-78
2022/07/25 02:22:04;;;;;;;8.63;6.65;;;;;;;21.03;57.26;98534.25;5058249;28;20032;-78
2022/07/25 02:24:31;;;;;;;8.75;6.20;;;;;;;21.14;56.79;98540.13;5066231;28;20432;-78
2022/07/25 02:26:56;;;;;;;7.13;5.97;;;;;;;21.16;56.73;98535.97;5061129;28;20123;-78
2022/07/25 02:29:22;;;;;;;7.30;5.72;;;;;;;21.04;57.30;98543.97;5063943;28;20111;-78
2022/07/25 02:31:47;;;;;;;7.63;6.80;;;;;;;21.08;57.17;98542.19;5057832;28;20028;-78
2022/07/25 02:34:13;;;;;;;8.20;6.28;;;;;;;21.08;57.21;98538.72;5065090;28;20035;-78
2022/07/25 02:36:38;;;;;;;8.07;7.03;;;;;;;21.00;57.14;98513.16;5046488;28;20427;-78
2022/07/25 02:39:04;;;;;;;6.70;5.90;;;;;;;20.89;56.98;98504.56;5045026;28;20081;-78
2022/07/25 02:41:30;;;;;;;6.93;6.30;;;;;;;20.89;56.54;98510.00;5064050;28;20036;-78
2022/07/25 02:43:55;;;;;;;6.60;6.03;;;;;;;21.03;57.27;98519.84;5063698;28;20031;-78
2022/07/25 02:46:21;;;;;;;6.53;5.97;;;;;;;20.88;57.20;98508.38;5065112;28;20561;-78
2022/07/25 02:48:46;;;;;;;6.72;6.13;;;;;;;20.86;57.45;98493.53;5047195;28;20440;-78
2022/07/25 02:51:12;;;;;;;7.13;6.50;;;;;;;20.86;57.42;98496.25;5061496;28;20383;-78
2022/07/25 02:53:37;;;;;;;6.43;5.82;;;;;;;20.87;57.37;98508.72;5063059;28;20387;-78
2022/07/25 02:56:03;;;;;;;6.70;5.50;;;;;;;20.72;57.77;98499.19;5061515;28;20028;-78
2022/07/25 02:58:29;;;;;;;6.32;5.72;;;;;;;20.59;57.86;98478.47;5063819;28;20028;-78
2022/07/25 03:00:54;;;;;;;8.40;6.28;;;;;;;20.78;57.66;98500.59;5063736;28;20043;-78
2022/07/25 03:03:19;;;;;;;7.57;5.88;;;;;;;20.76;57.78;98483.06;5060545;28;20024;-78
2022/07/25 03:05:45;;;;;;;9.73;6.65;;;;;;;20.76;57.61;98480.34;5060893;28;20565;-78
2022/07/25 03:08:10;;;;;;;6.57;5.95;;;;;;;20.78;57.77;98489.75;5046243;28;20127;-78
2022/07/25 03:10:36;;;;;;;8.40;6.50;;;;;;;20.78;57.75;98497.09;5059372;28;20400;-78
2022/07/25 03:13:01;;;;;;;8.57;7.07;;;;;;;20.76;57.38;98492.00;5062959;28;20035;-78
2022/07/25 03:15:27;;;;;;;7.45;6.20;;;;;;;20.63;57.87;98492.97;5060019;28;20041;-77
2022/07/25 03:17:52;;;;;;;8.02;5.60;;;;;;;20.58;57.85;98481.50;5061461;28;20024;-78
2022/07/25 03:20:18;;;;;;;7.05;6.40;;;;;;;20.64;57.94;98497.28;5044722;28;20480;-78
2022/07/25 03:22:43;;;;;;;7.22;6.45;;;;;;;20.61;57.65;98489.81;5063047;28;20040;-78
2022/07/25 03:25:09;;;;;;;8.18;6.47;;;;;;;20.64;57.76;98491.84;5056490;28;20078;-78
2022/07/25 03:27:34;;;;;;;8.43;6.18;;;;;;;20.53;57.67;98482.47;5061913;28;20032;-78
2022/07/25 03:30:00;;;;;;;8.10;6.07;;;;;;;20.57;58.07;98488.06;5059747;28;20028;-78
2022/07/25 03:32:25;;;;;;;10.55;5.50;;;;;;;20.49;58.03;98481.50;5029745;28;20036;-78
2022/07/25 03:34:50;;;;;;;8.13;6.30;;;;;;;20.52;57.74;98485.50;5053226;28;20028;-78
2022/07/25 03:37:16;;;;;;;6.20;5.60;;;;;;;20.53;58.13;98478.97;5047436;28;20028;-78
2022/07/25 03:39:42;;;;;;;7.05;5.82;;;;;;;20.37;58.04;98464.31;5061800;28;20118;-78
2022/07/25 03:42:07;;;;;;;6.03;5.47;;;;;;;20.48;58.12;98479.13;5070849;28;20123;-78
2022/07/25 03:44:33;;;;;;;6.18;5.45;;;;;;;20.45;58.02;98467.00;5066148;28;20047;-78
2022/07/25 03:46:58;;;;;;;6.90;5.93;;;;;;;20.46;58.36;98468.63;5049736;28;20627;-78
2022/07/25 03:49:23;;;;;;;7.10;5.85;;;;;;;20.43;58.37;98480.09;5049728;28;20040;-78
2022/07/25 03:51:49;;;;;;;9.73;6.63;;;;;;;20.43;58.53;98466.53;5066478;28;20518;-78
2022/07/25 03:54:14;;;;;;;9.13;6.93;;;;;;;20.27;58.46;98446.47;5062450;28;20050;-78
2022/07/25 03:56:45;;;;;;;9.27;6.40;;;;;;;20.38;58.59;98458.56;5047535;28;20036;-78
2022/07/25 03:59:14;;;;;;;7.13;6.28;;;;;;;20.38;58.19;98461.28;5059466;28;20029;-78
2022/07/25 04:01:40;;;;;;;6.78;6.10;;;;;;;20.36;58.20;98460.81;5067534;28;20439;-78
2022/07/25 04:04:05;;;;;;;6.93;6.22;;;;;;;20.40;58.43;98475.31;5066184;28;20028;-77
2022/07/25 04:06:31;;;;;;;10.25;6.72;;;;;;;20.34;58.04;98459.53;5064658;28;20074;-78
2022/07/25 04:08:57;;;;;;;6.68;5.97;;;;;;;20.30;58.11;98448.53;5050014;28;20032;-78
2022/07/25 04:11:22;;;;;;;6.38;5.78;;;;;;;20.31;58.48;98455.56;5064196;28;20024;-78
2022/07/25 04:13:48;;;;;;;7.90;5.68;;;;;;;20.28;58.45;98458.91;5065363;28;20115;-78
2022/07/25 04:16:14;;;;;;;8.57;6.25;;;;;;;20.33;58.68;98457.94;5066453;28;20130;-77
2022/07/25 04:18:40;;;;;;;6.32;5.40;;;;;;;20.24;58.87;98444.41;5065259;28;20123;-77
2022/07/25 04:21:06;;;;;;;7.00;6.30;;;;;;;20.35;58.71;98456.50;5063548;28;20031;-77
2022/07/25 04:23:32;;;;;;;7.07;6.25;;;;;;;20.37;58.91;98451.56;5065766;28;20039;-78
2022/07/25 04:25:57;;;;;;;7.32;6.35;;;;;;;20.38;59.13;98438.81;5064582;28;20032;-78
2022/07/25 04:28:24;;;;;;;7.32;6.63;;;;;;;20.46;58.91;98438.78;5063640;28;20028;-78
2022/07/25 04:30:49;;;;;;;7.95;6.15;;;;;;;20.58;58.54;98443.53;5049295;28;20127;-78
2022/07/25 04:33:15;;;;;;;6.30;5.70;;;;;;;20.68;58.55;98456.75;5059819;28;20229;-78
2022/07/25 04:35:41;;;;;;;6.40;5.80;;;;;;;20.81;58.52;98448.44;5064531;28;20037;-78
2022/07/25 04:38:10;;;;;;;7.97;6.80;;;;;;;20.70;58.18;98430.91;5063448;28;20029;-78
2022/07/25 04:40:36;;;;;;;6.97;5.88;;;;;;;20.81;58.39;98447.63;5081368;28;20086;-78
2022/07/25 04:43:03;;;;;;;8.07;5.90;;;;;;;20.96;58.00;98444.38;5056830;28;20036;-78
2022/07/25 04:45:28;;;;;;;8.07;6.63;;;;;;;21.11;57.82;98441.13;5065393;28;20032;-78
2022/07/25 04:47:53;;;;;;;7.50;6.07;;;;;;;21.11;57.51;98438.44;5061065;28;20086;-78
2022/07/25 04:50:19;;;;;;;6.55;5.85;;;;;;;21.19;57.53;98434.06;5045455;28;20040;-78
2022/07/25 04:52:44;;;;;;;6.65;5.95;;;;;;;21.27;57.07;98415.03;5046864;28;20119;-79
2022/07/25 04:55:10;;;;;;;7.10;5.65;;;;;;;21.43;56.82;98418.75;5047757;28;20561;-78
2022/07/25 04:57:35;;;;;;;8.73;6.93;;;;;;;21.57;56.68;98426.66;5065726;28;20070;-78
2022/07/25 05:00:04;;;;;;;8.32;5.78;;;;;;;21.59;56.78;98421.69;5065655;28;20029;-78
2022/07/25 05:02:29;;;;;;;7.85;5.97;;;;;;;21.67;56.73;98426.25;5059433;28;20055;-78
2022/07/25 05:04:54;;;;;;;6.80;5.55;;;;;;;21.65;56.63;98407.56;5044318;28;20211;-78
2022/07/25 05:07:20;;;;;;;7.22;6.28;;;;;;;21.71;56.58;98397.28;5044709;28;20082;-78
2022/07/25 05:09:45;;;;;;;6.70;5.65;;;;;;;21.75;56.75;98400.97;5042800;28;20433;-78
2022/07/25 05:12:10;;;;;;;7.05;6.45;;;;;;;21.82;56.68;98401.19;5065548;28;20037;-78
2022/07/25 05:14:37;;;;;;;6.80;6.03;;;;;;;21.90;56.35;98391.44;5059592;28;20102;-78
2022/07/25 05:17:03;;;;;;;10.10;6.40;;;;;;;22.06;55.90;98395.13;5063100;28;20030;-78
2022/07/25 05:19:28;;;;;;;7.88;6.18;;;;;;;22.02;56.13;98403.13;5062813;28;20103;-78
2022/07/25 05:21:54;;;;;;;7.55;6.18;;;;;;;22.07;55.83;98386.63;5080030;28;20516;-78
2022/07/25 05:24:19;;;;;;;9.07;6.05;;;;;;;22.07;56.09;98386.63;5065109;28;20508;-78
2022/07/25 05:26:44;;;;;;;6.93;6.25;;;;;;;22.06;56.24;98368.72;5048214;28;20041;-78
2022/07/25 05:29:10;;;;;;;7.90;6.38;;;;;;;22.22;55.79;98377.84;5061403;28;20029;-78
2022/07/25 05:31:36;;;;;;;11.80;6.00;;;;;;;22.04;55.98;98370.97;5064008;28;20484;-78
2022/07/25 05:34:01;;;;;;;7.15;6.47;;;;;;;22.16;55.63;98365.59;5063145;28;20024;-78
2022/07/25 05:36:27;;;;;;;7.43;6.38;;;;;;;22.35;55.56;98382.19;5063339;28;20041;-78
2022/07/25 05:38:53;;;;;;;7.18;6.05;;;;;;;22.40;55.54;98386.63;5063087;28;20077;-78
2022/07/25 05:41:19;;;;;;;7.20;6.50;;;;;;;22.45;55.32;98382.88;5048828;28;20044;-78
2022/07/25 05:43:47;;;;;;;6.78;5.93;;;;;;;22.36;55.71;98375.63;5065341;28;20029;-78
2022/07/25 05:46:14;;;;;;;8.52;7.40;;;;;;;21.75;59.45;98379.22;5064855;28;20016;-78
2022/07/25 05:48:40;;;;;;;9.05;6.68;;;;;;;21.82;59.49;98379.47;5058739;28;20539;-78
2022/07/25 05:51:05;;;;;;;6.65;5.90;;;;;;;22.07;57.59;98378.47;5077855;28;20029;-78
2022/07/25 05:53:31;;;;;;;9.68;6.63;;;;;;;21.96;58.19;98377.31;5066346;28;20016;-78
2022/07/25 05:55:56;;;;;;;9.85;7.75;;;;;;;21.99;60.10;98373.13;5063488;28;20047;-78
2022/07/25 05:58:22;;;;;;;8.05;7.25;;;;;;;21.71;59.88;98361.97;5046072;28;20437;-78
2022/07/25 06:00:49;;;;;;;7.47;6.78;;;;;;;21.99;59.40;98376.66;5060980;28;20024;-78
2022/07/25 06:03:16;;;;;;;10.18;7.72;;;;;;;21.75;61.19;98360.22;5066089;28;20036;-78
2022/07/25 06:05:42;;;;;;;9.43;6.70;;;;;;;21.89;61.11;98358.00;5062142;28;20028;-78
2022/07/25 06:08:07;;;;;;;7.13;6.40;;;;;;;22.38;56.51;98358.97;5059059;28;20426;-78
2022/07/25 06:10:32;;;;;;;9.52;6.53;;;;;;;22.65;56.24;98360.28;5060264;28;20473;-78
2022/07/25 06:12:58;;;;;;;11.10;6.55;;;;;;;22.68;55.68;98354.94;5054253;28;20028;-78
2022/07/25 06:15:23;;;;;;;8.63;7.47;;;;;;;22.29;58.16;98348.19;5057219;28;20064;-78
2022/07/25 06:17:49;;;;;;;6.53;5.85;;;;;;;22.60;56.35;98344.97;5057945;28;20047;-78
2022/07/25 06:20:14;;;;;;;9.32;7.80;;;;;;;22.67;59.14;98352.56;5054818;28;20027;-78
2022/07/25 06:22:39;;;;;;;9.23;7.25;;;;;;;22.61;59.07;98343.81;5058708;28;20745;-78
2022/07/25 06:25:06;;;;;;;8.57;7.75;;;;;;;22.66;59.13;98354.50;5061879;28;20035;-78
2022/07/25 06:27:31;;;;;;;8.02;7.07;;;;;;;22.84;56.07;98341.47;5060777;28;20316;-78
2022/07/25 06:29:57;;;;;;;11.48;6.55;;;;;;;22.85;55.87;98332.94;5059069;28;20029;-78
2022/07/25 06:32:22;;;;;;;9.48;8.55;;;;;;;22.80;57.85;98346.00;5058032;28;20037;-78
2022/07/25 06:34:48;;;;;;;9.52;7.15;;;;;;;22.93;57.58;98340.19;5056844;28;20044;-78
2022/07/25 06:37:14;;;;;;;7.07;6.43;;;;;;;23.05;55.64;98331.22;5057186;28;20034;-79
2022/07/25 06:39:40;;;;;;;7.82;6.95;;;;;;;23.07;56.58;98318.06;5056462;28;20025;-78
2022/07/25 06:42:05;;;;;;;10.90;7.60;;;;;;;23.15;55.92;98327.25;5059777;28;20032;-78
2022/07/25 06:44:34;;;;;;;9.43;7.75;;;;;;;23.22;56.69;98322.03;5062354;28;21466;-79
2022/07/25 06:47:00;;;;;;;7.72;7.03;;;;;;;23.30;56.06;98323.81;5041335;28;20061;-78
2022/07/25 06:49:25;;;;;;;8.82;7.95;;;;;;;23.19;56.93;98318.06;5062062;28;20043;-78
2022/07/25 06:51:51;;;;;;;8.85;7.88;;;;;;;23.37;56.06;98313.94;5056130;28;20028;-78
2022/07/25 06:54:17;;;;;;;9.48;7.20;;;;;;;23.53;56.25;98324.91;5060124;28;20033;-78
2022/07/25 06:56:43;;;;;;;8.63;7.30;;;;;;;23.55;55.73;98309.00;5045882;28;20024;-78
2022/07/25 06:59:08;;;;;;;9.20;8.30;;;;;;;23.59;55.78;98312.66;5053783;28;20055;-78
2022/07/25 07:01:34;;;;;;;9.40;7.75;;;;;;;23.77;54.53;98324.81;5060022;28;20579;-78
2022/07/25 07:03:59;;;;;;;8.43;7.70;;;;;;;23.75;54.38;98297.94;5059443;28;20036;-78
2022/07/25 07:06:24;;;;;;;8.73;7.82;;;;;;;23.84;54.37;98305.94;5055758;28;20029;-78
2022/07/25 07:08:50;;;;;;;9.18;8.27;;;;;;;23.88;53.83;98295.94;5058137;28;20025;-78
2022/07/25 07:11:15;;;;;;;10.07;8.57;;;;;;;23.84;54.87;98301.28;5062319;28;20029;-78
2022/07/25 07:13:41;;;;;;;8.82;7.85;;;;;;;24.02;54.18;98311.88;5052752;28;20036;-78
2022/07/25 07:16:06;;;;;;;12.27;7.90;;;;;;;24.05;53.41;98292.13;5056167;28;20052;-79
2022/07/25 07:18:32;;;;;;;9.68;8.45;;;;;;;24.12;54.15;98303.19;5054300;28;20050;-78
2022/07/25 07:20:57;;;;;;;8.77;7.95;;;;;;;24.27;53.46;98299.69;5058962;28;20082;-78
2022/07/25 07:23:23;;;;;;;7.90;7.25;;;;;;;24.30;53.11;98288.91;5060657;28;20036;-78
2022/07/25 07:25:48;;;;;;;9.18;8.27;;;;;;;24.29;53.77;98281.03;5058386;28;20127;-78
2022/07/25 07:28:14;;;;;;;9.88;8.98;;;;;;;24.42;53.14;98286.06;5040618;28;20031;-78
2022/07/25 07:30:39;;;;;;;9.20;8.27;;;;;;;24.51;52.56;98285.88;5060868;28;20029;-79
2022/07/25 07:33:05;;;;;;;11.73;8.02;;;;;;;24.63;52.57;98283.06;5051474;28;20032;-79
2022/07/25 07:35:30;;;;;;;12.40;9.15;;;;;;;24.68;53.55;98279.28;5061760;28;20095;-78
2022/07/25 07:37:56;;;;;;;11.35;9.23;;;;;;;24.82;52.78;98280.44;5048686;28;20045;-78
2022/07/25 07:40:22;;;;;;;9.55;8.55;;;;;;;24.89;53.41;98264.22;5062439;28;20020;-78
2022/07/25 07:42:49;;;;;;;10.05;8.18;;;;;;;25.05;52.71;98270.41;5045914;28;20039;-79
2022/07/25 07:45:20;;;;;;;11.05;8.90;;;;;;;24.95;52.43;98245.59;5061448;28;20052;-78
2022/07/25 07:47:47;;;;;;;10.98;8.40;;;;;;;25.14;52.20;98264.75;5058672;28;20074;-79
2022/07/25 07:50:18;;;;;;;9.35;8.45;;;;;;;25.33;51.74;98261.25;5068173;28;20032;-79
2022/07/25 07:52:44;;;;;;;9.88;8.93;;;;;;;25.25;51.74;98255.63;5061222;28;20043;-78
2022/07/25 07:57:54;;;;;;;10.23;9.32;;;;;;;25.51;51.73;98256.97;5057009;28;20086;-79
2022/07/25 08:00:20;;;;;;;10.73;9.73;;;;;;;25.49;51.46;98242.88;5056795;28;20029;-79
2022/07/25 08:02:48;;;;;;;11.10;9.40;;;;;;;25.70;51.88;98241.34;5055068;28;20037;-79
2022/07/25 08:05:24;;;;;;;9.02;7.90;;;;;;;25.88;50.71;98244.41;5060822;28;20082;-79
2022/07/25 08:07:50;;;;;;;9.95;8.95;;;;;;;25.91;50.91;98243.66;5053600;28;20033;-79
2022/07/25 08:10:21;;;;;;;9.60;8.63;;;;;;;25.97;51.71;98237.53;5052267;28;20043;-79
2022/07/25 08:12:47;;;;;;;9.27;7.97;;;;;;;26.14;50.52;98227.28;5060830;28;21173;-79
2022/07/25 08:15:12;;;;;;;10.23;9.43;;;;;;;26.21;51.08;98243.84;5062045;28;20032;-79
2022/07/25 08:17:37;;;;;;;8.93;8.02;;;;;;;26.23;50.48;98225.09;5042060;28;20031;-79
2022/07/25 08:20:07;;;;;;;10.27;8.88;;;;;;;26.37;50.55;98237.06;5042877;28;20021;-79
2022/07/25 08:22:41;;;;;;;13.57;8.77;;;;;;;26.29;50.02;98224.44;5056032;28;20029;-78
2022/07/25 08:25:13;;;;;;;11.57;9.10;;;;;;;26.52;51.45;98230.66;5058893;28;20531;-78
2022/07/25 08:27:39;;;;;;;10.23;9.13;;;;;;;26.53;50.43;98215.03;5061105;28;20242;-78
2022/07/25 08:30:07;;;;;;;10.40;9.35;;;;;;;26.73;49.88;98225.50;5032192;28;20077;-78
2022/07/25 08:32:32;;;;;;;9.85;8.75;;;;;;;26.82;50.01;98217.06;5064238;28;20032;-78
2022/07/25 08:34:58;;;;;;;11.80;9.05;;;;;;;27.00;49.75;98217.25;5061951;28;20036;-79
2022/07/25 08:37:24;;;;;;;10.00;9.05;;;;;;;27.06;49.40;98211.13;5064981;28;20028;-78
2022/07/25 08:39:50;;;;;;;9.52;8.65;;;;;;;27.03;49.10;98211.06;5064139;28;20541;-78
2022/07/25 08:42:19;;;;;;;13.25;9.40;;;;;;;27.11;49.41;98215.44;5057138;28;20032;-79
2022/07/25 08:44:54;;;;;;;10.05;9.05;;;;;;;27.25;48.99;98212.91;5062733;28;20032;-79
2022/07/25 08:47:20;;;;;;;10.05;8.60;;;;;;;27.34;48.56;98205.97;5057828;28;20032;-79
2022/07/25 08:49:45;;;;;;;12.27;10.52;;;;;;;27.46;48.65;98208.50;5060232;28;20568;-79
2022/07/25 08:52:11;;;;;;;9.65;8.85;;;;;;;27.42;48.29;98193.97;5064507;28;20088;-78
2022/07/25 08:54:37;;;;;;;9.57;8.75;;;;;;;27.62;48.26;98199.25;5058143;28;20056;-79
2022/07/25 08:57:03;;;;;;;9.80;8.75;;;;;;;27.60;48.25;98185.91;5057312;28;20056;-79
2022/07/25 08:59:30;;;;;;;13.40;10.20;;;;;;;27.84;48.20;98201.84;5062599;28;20028;-78
2022/07/25 09:01:57;;;;;;;10.02;9.02;;;;;;;27.88;47.69;98199.13;5058470;28;20032;-79
2022/07/25 09:04:24;;;;;;;10.30;9.40;;;;;;;27.82;48.58;98192.41;5060120;28;20028;-79
2022/07/25 09:06:50;;;;;;;12.70;9.30;;;;;;;27.87;47.75;98183.84;5045391;28;20044;-78
2022/07/25 09:09:16;;;;;;;9.93;8.93;;;;;;;27.93;47.61;98191.34;5061681;28;20395;-79
2022/07/25 09:11:42;;;;;;;10.38;9.38;;;;;;;27.90;47.66;98180.31;5060985;28;20032;-78
2022/07/25 09:14:10;;;;;;;9.60;8.65;;;;;;;27.96;47.79;98174.09;5062267;28;20039;-79
2022/07/25 09:16:42;;;;;;;10.38;9.40;;;;;;;28.07;47.39;98186.00;5057303;28;20043;-79
2022/07/25 09:19:17;;;;;;;11.93;9.40;;;;;;;28.12;47.73;98182.91;5061266;28;20024;-79
2022/07/25 09:21:45;;;;;;;12.93;10.05;;;;;;;28.30;48.35;98182.25;5040705;28;20083;-79
2022/07/25 09:24:11;;;;;;;12.75;9.60;;;;;;;28.36;47.04;98169.75;5042361;28;20135;-79
2022/07/25 09:26:45;;;;;;;10.70;9.60;;;;;;;28.23;46.69;98165.72;5079457;28;20430;-78
2022/07/25 09:29:22;;;;;;;11.13;10.13;;;;;;;28.26;46.87;98168.50;5058143;28;20019;-78
2022/07/25 09:31:48;;;;;;;12.90;9.20;;;;;;;28.37;47.30;98165.84;5060861;28;20032;-78
2022/07/25 09:34:38;;;;;;;9.90;8.95;;;;;;;28.60;46.40;98178.19;5059358;28;20035;-79
2022/07/25 09:37:05;;;;;;;10.63;9.60;;;;;;;28.67;46.33;98172.75;5074042;28;20036;-79
2022/07/25 09:39:42;;;;;;;10.98;8.75;;;;;;;28.81;45.82;98172.03;5059482;28;20038;-78
2022/07/25 09:42:15;;;;;;;10.55;9.55;;;;;;;28.80;45.77;98153.97;5059148;28;20051;-78
2022/07/25 09:44:41;;;;;;;10.70;9.60;;;;;;;28.96;45.69;98150.91;5059201;28;20028;-79
2022/07/25 09:47:11;;;;;;;11.57;10.38;;;;;;;28.95;46.06;98150.09;5062471;28;20027;-79
2022/07/25 09:49:41;;;;;;;10.73;9.70;;;;;;;29.10;46.04;98153.69;5056151;28;20070;-79
2022/07/25 09:52:08;;;;;;;10.43;9.52;;;;;;;29.20;45.34;98147.50;5044607;28;20123;-79
2022/07/25 09:54:34;;;;;;;10.27;9.20;;;;;;;29.29;44.27;98147.91;5059540;28;20053;-78
2022/07/25 09:57:00;;;;;;;10.60;9.52;;;;;;;29.15;44.67;98139.56;5064772;28;20531;-79
2022/07/25 09:59:26;;;;;;;10.77;9.68;;;;;;;29.32;45.47;98139.66;5048603;28;20044;-79
2022/07/25 10:02:22;;;;;;;10.75;9.50;;;;;;;29.62;43.69;98125.56;5062562;28;20032;-79
2022/07/25 10:05:09;;;;;;;9.27;8.48;;;;;;;29.81;43.43;98127.19;5061225;28;20484;-79
2022/07/25 10:07:40;;;;;;;8.90;8.10;;;;;;;29.75;42.92;98134.28;5074940;28;20035;-79
2022/07/25 10:10:05;;;;;;;9.15;8.25;;;;;;;29.65;42.38;98117.34;5059104;28;20032;-79
2022/07/25 10:12:31;;;;;;;16.17;6.78;;;;;;;29.47;41.44;98113.75;5063371;28;20060;-78
2022/07/25 10:15:23;;;;;;;12.80;7.63;;;;;;;29.67;41.72;98103.97;5062261;28;20086;-79
2022/07/25 10:17:50;;;;;;;9.15;8.05;;;;;;;30.07;41.19;98122.09;5056927;28;20044;-79
2022/07/25 10:20:27;;;;;;;8.30;7.53;;;;;;;30.11;41.12;98111.06;5044303;28;20021;-79
2022/07/25 10:22:52;;;;;;;9.07;8.20;;;;;;;30.19;41.67;98118.13;5060163;28;20028;-79
2022/07/25 10:25:20;;;;;;;7.07;6.47;;;;;;;30.25;41.12;98117.31;5062688;28;20123;-79
2022/07/25 10:27:51;;;;;;;7.75;7.10;;;;;;;30.18;40.76;98125.63;5060681;28;20090;-79
2022/07/25 10:30:22;;;;;;;8.15;7.35;;;;;;;30.07;41.27;98124.84;5058815;28;21235;-79
2022/07/25 10:32:50;;;;;;;8.90;8.00;;;;;;;29.77;41.11;98110.69;5059313;28;20497;-79
2022/07/25 10:35:16;;;;;;;8.80;6.90;;;;;;;29.93;41.36;98115.78;5058004;28;20028;-79
2022/07/25 10:37:43;;;;;;;8.07;7.35;;;;;;;29.99;41.23;98119.75;5065949;28;20460;-79
2022/07/25 10:40:09;;;;;;;10.50;8.07;;;;;;;29.85;41.92;98111.47;5057434;28;20032;-79
2022/07/25 10:42:35;;;;;;;10.45;8.05;;;;;;;29.90;41.94;98100.88;5082553;28;20166;-79
2022/07/25 10:45:04;;;;;;;7.63;7.00;;;;;;;30.14;41.71;98102.03;5059378;28;20496;-79
2022/07/25 10:47:37;;;;;;;8.50;7.80;;;;;;;30.13;41.62;98092.19;5060773;28;20028;-78
2022/07/25 10:50:03;;;;;;;8.55;7.78;;;;;;;30.14;41.44;98102.03;5054396;28;20090;-79
2022/07/25 10:52:29;;;;;;;8.63;7.82;;;;;;;30.19;41.91;98102.41;5040583;28;20164;-79
2022/07/25 10:54:57;;;;;;;7.18;6.45;;;;;;;30.25;42.68;98100.03;5063035;28;20082;-79
2022/07/25 10:57:22;;;;;;;8.02;7.30;;;;;;;30.33;40.96;98093.34;5061944;28;20029;-79
2022/07/25 10:59:48;;;;;;;8.93;7.38;;;;;;;30.28;41.43;98099.22;5042722;28;20040;-79
2022/07/25 11:02:16;;;;;;;7.68;7.05;;;;;;;30.26;41.40;98102.38;5063243;28;20036;-79
2022/07/25 11:04:57;;;;;;;7.30;6.60;;;;;;;30.44;41.29;98090.56;5056505;28;20035;-79
2022/07/25 11:07:23;;;;;;;6.82;6.32;;;;;;;30.58;40.73;98090.53;5062962;28;20138;-79
2022/07/25 11:09:59;;;;;;;7.80;7.00;;;;;;;30.89;40.75;98081.38;5060395;28;20553;-79
2022/07/25 11:12:25;;;;;;;8.45;7.35;;;;;;;31.11;39.85;98080.09;5044752;28;20159;-79
2022/07/25 11:14:58;;;;;;;7.70;7.03;;;;;;;31.34;39.79;98080.34;5067896;28;20036;-79
2022/07/25 11:17:24;;;;;;;8.18;6.65;;;;;;;31.43;39.95;98090.97;5059717;28;20036;-79
2022/07/25 11:19:57;;;;;;;7.35;6.75;;;;;;;31.46;39.15;98079.09;5064339;28;20488;-78
2022/07/25 11:22:23;;;;;;;8.07;7.28;;;;;;;31.30;39.39;98068.53;5068081;28;20503;-79
2022/07/25 11:24:49;;;;;;;8.68;7.00;;;;;;;31.40;39.66;98058.63;5057158;28;20114;-78
2022/07/25 11:27:28;;;;;;;11.52;8.25;;;;;;;31.48;40.27;98063.72;5047906;28;20033;-79
2022/07/25 11:30:08;;;;;;;11.07;7.50;;;;;;;31.63;38.80;98056.91;5051124;28;20036;-78
2022/07/25 11:32:57;;;;;;;7.93;7.18;;;;;;;31.32;38.98;98065.41;5057092;28;20509;-78